Time;durP1;ratioP1;P1;durP2;ratioP2;P2;SDS_P1;SDS_P2;PMS_P1;PMS_P2;Temp;Humidity;BMP_temperature;BMP_pressure;BME280_temperature;BME280_humidity;BME280_pressure;Samples;Min_cycle;Max_cycle;Signal;HPM_P1;HPM_P2
2022/01/24 00:01:25;;;;;;;10.60;6.00;;;5.00;99.90;;;;;;6162767;23;20201;-87
2022/01/24 00:03:56;;;;;;;12.18;6.70;;;4.90;99.90;;;;;;6162825;23;20192;-86
2022/01/24 00:06:23;;;;;;;8.45;5.57;;;5.30;99.90;;;;;;6162844;23;20176;-87
2022/01/24 00:08:50;;;;;;;11.18;6.60;;;4.70;99.90;;;;;;6162590;23;20180;-86
2022/01/24 00:11:21;;;;;;;10.50;6.78;;;5.20;99.90;;;;;;6164326;23;20203;-87
2022/01/24 00:16:58;;;;;;;8.80;4.82;;;5.00;99.90;;;;;;6157780;23;20475;-86
2022/01/24 00:27:53;;;;;;;9.27;5.25;;;4.60;99.90;;;;;;6144456;23;20635;-87
2022/01/24 00:30:21;;;;;;;8.50;4.93;;;4.70;99.90;;;;;;6162715;23;20186;-87
2022/01/24 00:32:48;;;;;;;8.38;5.68;;;4.40;99.90;;;;;;6165192;23;20229;-86
2022/01/24 00:35:15;;;;;;;19.77;5.95;;;4.60;99.90;;;;;;6165475;23;20219;-87
2022/01/24 00:37:42;;;;;;;10.43;4.97;;;4.60;99.90;;;;;;6163730;23;20236;-87
2022/01/24 00:40:10;;;;;;;11.98;6.15;;;4.60;99.90;;;;;;6163207;23;20228;-87
2022/01/24 00:42:48;;;;;;;8.38;5.15;;;4.50;99.90;;;;;;6163414;23;20276;-87
2022/01/24 00:45:24;;;;;;;9.70;5.35;;;4.40;99.90;;;;;;6169340;23;20181;-87
2022/01/24 00:48:10;;;;;;;9.85;6.00;;;4.30;99.90;;;;;;6175145;23;20166;-86
2022/01/24 00:53:37;;;;;;;10.25;5.63;;;4.30;99.90;;;;;;6162555;23;20254;-87
2022/01/24 00:56:05;;;;;;;9.90;6.20;;;4.00;99.90;;;;;;6162221;23;20217;-87
2022/01/24 00:58:33;;;;;;;9.23;5.70;;;4.40;99.90;;;;;;6161616;23;20226;-87
2022/01/24 01:00:59;;;;;;;9.27;5.80;;;4.40;99.90;;;;;;6161967;23;20256;-86
2022/01/24 01:03:28;;;;;;;11.38;6.10;;;4.10;99.90;;;;;;6161453;23;20268;-86
2022/01/24 01:06:04;;;;;;;10.25;6.30;;;4.20;99.90;;;;;;6161843;23;20260;-87
2022/01/24 01:19:31;;;;;;;10.27;5.97;;;4.00;99.90;;;;;;6163477;23;20193;-87
2022/01/24 01:21:58;;;;;;;11.68;6.05;;;4.00;99.90;;;;;;6163321;23;20207;-87
2022/01/24 01:24:26;;;;;;;10.45;6.00;;;3.80;99.90;;;;;;6164344;23;20363;-87
2022/01/24 01:26:58;;;;;;;10.85;6.25;;;3.70;99.90;;;;;;6164126;23;20269;-87
2022/01/24 01:29:29;;;;;;;10.18;5.85;;;3.90;99.90;;;;;;6164772;23;20168;-86
2022/01/24 01:32:08;;;;;;;10.48;6.07;;;3.90;99.90;;;;;;6164573;23;20299;-87
2022/01/24 01:34:58;;;;;;;10.85;6.57;;;3.90;99.90;;;;;;6164664;23;20175;-87
2022/01/24 01:54:26;;;;;;;9.32;5.95;;;3.60;99.90;;;;;;5117716;28;20204;-87
2022/01/24 01:56:54;;;;;;;11.23;6.57;;;3.70;99.90;;;;;;5119323;28;20365;-87
2022/01/24 01:59:21;;;;;;;10.25;6.18;;;3.60;99.90;;;;;;5127156;28;20292;-87
2022/01/24 02:01:48;;;;;;;12.23;7.00;;;3.70;99.90;;;;;;5126146;28;20295;-87
2022/01/24 02:04:15;;;;;;;11.27;6.25;;;3.60;99.90;;;;;;5120416;28;20207;-87
2022/01/24 02:06:43;;;;;;;12.50;6.20;;;3.70;99.90;;;;;;5119009;28;20244;-88
2022/01/24 02:09:11;;;;;;;13.65;7.22;;;3.70;99.90;;;;;;5124875;28;20235;-85
2022/01/24 02:11:39;;;;;;;13.75;8.35;;;3.70;99.90;;;;;;5133479;22;20220;-87
2022/01/24 02:14:11;;;;;;;10.63;6.68;;;3.60;99.90;;;;;;5079868;28;20219;-86
2022/01/24 02:16:45;;;;;;;12.70;6.95;;;3.50;99.90;;;;;;5090685;28;20288;-86
2022/01/24 02:19:23;;;;;;;12.05;7.00;;;3.60;99.90;;;;;;5084373;28;20240;-87
2022/01/24 02:22:07;;;;;;;13.40;7.63;;;3.30;99.90;;;;;;5086610;28;20648;-85
2022/01/24 02:24:42;;;;;;;9.18;6.32;;;2.90;99.90;;;;;;5096727;28;20192;-86
2022/01/24 02:27:10;;;;;;;10.55;6.32;;;3.40;99.90;;;;;;5101623;28;20210;-88
2022/01/24 02:29:51;;;;;;;9.23;6.13;;;3.60;99.90;;;;;;5100427;28;20219;-87
2022/01/24 02:32:18;;;;;;;12.00;6.97;;;3.20;99.90;;;;;;5113774;28;20210;-85
2022/01/24 02:34:48;;;;;;;13.90;7.15;;;3.30;99.90;;;;;;5101421;28;20650;-88
2022/01/24 02:37:19;;;;;;;12.25;7.07;;;3.40;99.90;;;;;;5095675;28;20296;-88
2022/01/24 02:39:54;;;;;;;13.30;7.35;;;3.00;99.90;;;;;;5095658;28;20270;-88
2022/01/24 02:53:21;;;;;;;12.85;6.85;;;3.50;99.90;;;;;;5083204;28;20250;-88
2022/01/24 02:55:49;;;;;;;12.60;7.55;;;3.50;99.90;;;;;;5095019;28;20200;-88
2022/01/24 02:58:17;;;;;;;12.68;7.40;;;3.40;99.90;;;;;;5089297;28;20243;-87
2022/01/24 03:00:45;;;;;;;11.85;6.60;;;3.40;99.90;;;;;;5081654;28;20208;-87
2022/01/24 03:03:13;;;;;;;12.05;7.70;;;3.20;99.90;;;;;;5081817;28;20236;-87
2022/01/24 03:05:39;;;;;;;12.35;7.72;;;3.40;99.90;;;;;;5090145;28;20217;-85
2022/01/24 03:08:07;;;;;;;13.38;7.97;;;3.30;99.90;;;;;;5093113;28;20502;-87
2022/01/24 03:10:39;;;;;;;11.23;6.80;;;3.20;99.90;;;;;;5083676;28;20201;-88
2022/01/24 03:13:30;;;;;;;12.25;7.15;;;3.20;99.90;;;;;;5093351;28;20272;-88
2022/01/24 03:15:58;;;;;;;9.52;6.57;;;2.80;99.90;;;;;;5094495;28;20242;-86
2022/01/24 03:18:26;;;;;;;12.20;7.35;;;3.30;99.90;;;;;;5083092;28;20249;-87
2022/01/24 03:20:53;;;;;;;10.50;6.60;;;3.10;99.90;;;;;;5082555;28;20219;-88
2022/01/24 03:23:22;;;;;;;13.48;8.40;;;2.80;99.90;;;;;;5083397;28;20238;-88
2022/01/24 03:25:50;;;;;;;14.05;7.20;;;3.30;99.90;;;;;;5083488;28;20262;-86
2022/01/24 03:28:17;;;;;;;13.25;7.10;;;3.20;99.90;;;;;;5083528;28;20200;-87
2022/01/24 03:30:45;;;;;;;14.32;8.18;;;3.00;99.90;;;;;;5085609;28;20256;-88
2022/01/24 03:33:12;;;;;;;11.95;6.90;;;3.10;99.90;;;;;;5081992;28;20228;-86
2022/01/24 03:35:41;;;;;;;11.32;7.45;;;3.00;99.90;;;;;;5082278;28;20272;-85
2022/01/24 03:38:07;;;;;;;13.93;7.40;;;3.10;99.90;;;;;;5078063;28;20223;-85
2022/01/24 03:40:34;;;;;;;12.23;7.20;;;2.50;99.90;;;;;;5079484;28;20255;-87
2022/01/24 03:43:03;;;;;;;11.48;7.07;;;3.00;99.90;;;;;;5079849;28;20221;-87
2022/01/24 03:45:38;;;;;;;10.40;6.60;;;3.00;99.90;;;;;;5079754;28;20213;-87
2022/01/24 03:48:09;;;;;;;11.20;6.90;;;2.90;99.90;;;;;;5080027;28;20250;-87
2022/01/24 03:50:35;;;;;;;13.05;7.00;;;2.80;99.90;;;;;;5082009;28;20191;-87
2022/01/24 03:53:04;;;;;;;13.50;6.93;;;2.50;99.90;;;;;;5082136;28;20236;-86
2022/01/24 03:55:31;;;;;;;14.25;7.70;;;2.80;99.90;;;;;;5083041;28;20359;-86
2022/01/24 03:57:58;;;;;;;15.73;6.70;;;2.50;99.90;;;;;;5099580;28;20197;-87
2022/01/24 04:00:26;;;;;;;12.27;7.10;;;2.80;99.90;;;;;;5095294;28;20315;-88
2022/01/24 04:02:53;;;;;;;12.23;6.82;;;2.80;99.90;;;;;;5088317;28;20232;-88
2022/01/24 04:05:20;;;;;;;13.88;7.75;;;2.80;99.90;;;;;;5095866;28;20228;-87
2022/01/24 04:07:47;;;;;;;9.70;6.03;;;3.10;99.90;;;;;;5083064;28;20243;-88
2022/01/24 04:10:17;;;;;;;12.10;7.05;;;2.80;99.90;;;;;;5080402;28;20296;-87
2022/01/24 04:12:44;;;;;;;13.75;7.18;;;2.90;99.90;;;;;;5079504;28;20242;-87
2022/01/24 04:15:26;;;;;;;13.27;7.68;;;2.80;99.90;;;;;;5083621;28;20215;-88
2022/01/24 04:18:12;;;;;;;12.23;6.70;;;2.90;99.90;;;;;;5096129;28;20196;-86
2022/01/24 04:23:23;;;;;;;11.25;7.43;;;3.00;99.90;;;;;;5086663;28;20249;-86
2022/01/24 04:25:50;;;;;;;12.88;7.28;;;2.90;99.90;;;;;;5089458;28;20263;-88
2022/01/24 04:28:17;;;;;;;12.50;7.82;;;2.50;99.90;;;;;;5086835;28;20208;-88
2022/01/24 04:30:44;;;;;;;13.02;7.53;;;2.80;99.90;;;;;;5079844;28;20204;-88
2022/01/24 04:33:12;;;;;;;13.52;7.63;;;2.90;99.90;;;;;;5082789;28;20224;-87
2022/01/24 04:35:39;;;;;;;12.73;6.35;;;2.30;99.90;;;;;;5090979;28;20200;-87
2022/01/24 04:38:06;;;;;;;12.85;8.02;;;2.80;99.90;;;;;;5091912;28;20278;-87
2022/01/24 04:40:32;;;;;;;11.77;6.80;;;2.70;99.90;;;;;;5095821;28;20224;-86
2022/01/24 04:43:21;;;;;;;11.40;7.60;;;2.80;99.90;;;;;;5092128;28;20296;-87
2022/01/24 04:46:02;;;;;;;13.85;8.70;;;2.70;99.90;;;;;;5090074;28;20618;-86
2022/01/24 04:51:29;;;;;;;13.27;8.30;;;2.60;99.90;;;;;;5079720;28;20190;-87
2022/01/24 04:56:42;;;;;;;13.55;8.15;;;2.60;99.90;;;;;;5092463;28;20211;-87
2022/01/24 04:59:10;;;;;;;11.75;7.45;;;2.80;99.90;;;;;;5091150;28;20241;-88
2022/01/24 05:01:37;;;;;;;11.60;7.20;;;2.70;99.90;;;;;;5081374;28;20234;-88
2022/01/24 05:04:06;;;;;;;11.70;7.18;;;2.30;99.90;;;;;;5093488;28;20209;-86
2022/01/24 05:06:33;;;;;;;11.68;7.68;;;2.90;99.90;;;;;;5086905;28;20210;-88
2022/01/24 05:09:00;;;;;;;12.77;8.52;;;2.60;99.90;;;;;;5091722;28;20219;-87
2022/01/24 05:11:36;;;;;;;12.98;7.50;;;2.50;99.90;;;;;;5092262;28;20211;-88
2022/01/24 05:25:02;;;;;;;11.20;7.50;;;2.90;99.90;;;;;;5092488;28;20186;-87
2022/01/24 05:27:31;;;;;;;14.07;8.20;;;2.90;99.90;;;;;;5079415;28;20203;-88
2022/01/24 05:29:58;;;;;;;11.75;8.02;;;2.80;99.90;;;;;;5078154;28;20211;-87
2022/01/24 05:32:24;;;;;;;12.00;8.65;;;2.80;99.90;;;;;;5079511;28;20288;-88
2022/01/24 05:34:53;;;;;;;14.82;8.20;;;2.70;99.90;;;;;;5079219;28;20208;-87
2022/01/24 05:37:20;;;;;;;12.55;7.65;;;2.50;99.90;;;;;;5078934;28;20242;-87
2022/01/24 05:39:46;;;;;;;15.32;8.05;;;2.70;99.90;;;;;;5078199;28;20236;-87
2022/01/24 05:42:13;;;;;;;14.48;8.07;;;2.50;99.90;;;;;;5080213;28;20292;-86
2022/01/24 05:44:40;;;;;;;13.48;8.45;;;3.00;99.90;;;;;;5079307;28;20240;-85
2022/01/24 05:47:07;;;;;;;12.52;7.38;;;3.10;99.90;;;;;;5078944;28;20211;-86
2022/01/24 05:49:34;;;;;;;16.15;8.60;;;3.00;99.90;;;;;;5081332;28;20218;-87
2022/01/24 05:52:09;;;;;;;14.25;8.55;;;2.70;99.90;;;;;;5083759;28;20244;-87
2022/01/24 05:54:36;;;;;;;14.70;8.48;;;2.80;99.90;;;;;;5079421;28;20227;-86
2022/01/24 05:57:03;;;;;;;12.43;8.20;;;2.70;99.90;;;;;;5079485;28;20204;-86
2022/01/24 05:59:30;;;;;;;13.60;8.52;;;2.70;99.90;;;;;;5081285;28;20238;-86
2022/01/24 06:01:57;;;;;;;13.65;8.98;;;2.70;99.90;;;;;;5084616;28;20240;-86
2022/01/24 06:04:23;;;;;;;16.70;8.60;;;2.50;99.90;;;;;;5082889;28;20292;-88
2022/01/24 06:06:50;;;;;;;16.25;9.07;;;2.70;99.90;;;;;;5084381;28;20212;-87
2022/01/24 06:09:19;;;;;;;13.88;7.95;;;2.50;99.90;;;;;;5078798;28;20298;-87
2022/01/24 06:11:46;;;;;;;15.35;9.85;;;2.60;99.90;;;;;;5082964;28;20723;-87
2022/01/24 06:14:13;;;;;;;14.20;8.02;;;2.50;99.90;;;;;;5079355;28;20382;-86
2022/01/24 06:16:40;;;;;;;15.32;10.23;;;2.60;99.90;;;;;;5078267;28;20271;-87
2022/01/24 06:19:07;;;;;;;16.63;9.07;;;2.70;99.90;;;;;;5080578;28;20209;-85
2022/01/24 06:21:34;;;;;;;13.45;9.15;;;2.70;99.90;;;;;;5083302;28;20197;-86
2022/01/24 06:24:01;;;;;;;16.13;9.00;;;2.70;99.90;;;;;;5082956;28;20203;-88
2022/01/24 06:26:29;;;;;;;14.95;8.85;;;2.50;99.90;;;;;;5083614;28;20208;-86
2022/01/24 06:28:56;;;;;;;12.68;8.10;;;2.70;99.90;;;;;;5084973;28;20718;-88
2022/01/24 06:31:23;;;;;;;15.60;9.82;;;2.70;99.90;;;;;;5082997;28;20252;-87
2022/01/24 06:33:50;;;;;;;17.33;9.25;;;2.60;99.90;;;;;;5083357;28;20263;-86
2022/01/24 06:36:17;;;;;;;15.68;9.73;;;2.60;99.90;;;;;;5082150;28;20203;-87
2022/01/24 06:38:44;;;;;;;13.23;9.23;;;2.50;99.90;;;;;;5082590;28;20550;-88
2022/01/24 06:41:11;;;;;;;13.98;8.27;;;2.30;99.90;;;;;;5083545;28;20312;-86
2022/01/24 06:43:39;;;;;;;15.63;9.05;;;2.40;99.90;;;;;;5088740;28;20238;-87
2022/01/24 06:46:06;;;;;;;17.23;9.63;;;2.60;99.90;;;;;;5084814;28;20214;-87
2022/01/24 06:48:33;;;;;;;18.95;10.80;;;2.50;99.90;;;;;;5098509;28;20209;-83
2022/01/24 06:50:59;;;;;;;14.90;9.10;;;2.20;99.90;;;;;;5097997;28;20203;-89
2022/01/24 06:53:26;;;;;;;14.85;9.02;;;2.30;99.90;;;;;;5100271;28;20215;-85
2022/01/24 06:55:53;;;;;;;16.83;9.95;;;2.40;99.90;;;;;;5100174;28;20213;-86
2022/01/24 06:58:20;;;;;;;15.52;9.10;;;2.40;99.90;;;;;;5099647;28;20212;-86
2022/01/24 07:00:48;;;;;;;18.30;9.90;;;2.50;99.90;;;;;;5083622;28;20269;-87
2022/01/24 07:03:15;;;;;;;16.42;10.52;;;2.40;99.90;;;;;;5083926;28;20304;-85
2022/01/24 07:05:42;;;;;;;14.68;8.90;;;2.50;99.90;;;;;;5084530;28;20299;-87
2022/01/24 07:08:09;;;;;;;15.93;9.27;;;2.20;99.90;;;;;;5088628;28;20207;-87
2022/01/24 07:10:36;;;;;;;15.23;9.30;;;2.30;99.90;;;;;;5088014;28;20258;-86
2022/01/24 07:13:02;;;;;;;17.90;10.20;;;2.40;99.90;;;;;;5082017;28;20264;-87
2022/01/24 07:15:34;;;;;;;14.48;8.68;;;2.50;99.90;;;;;;5081557;28;20239;-87
2022/01/24 07:18:57;;;;;;;15.73;9.20;;;2.30;99.90;;;;;;5090765;28;20251;-86
2022/01/24 07:21:03;;;;;;;29.33;10.13;;;1.90;99.90;;;;;;5088047;28;20223;-87
2022/01/24 07:23:30;;;;;;;15.95;9.90;;;2.30;99.90;;;;;;5082945;28;20316;-86
2022/01/24 07:25:57;;;;;;;16.58;9.73;;;2.30;99.90;;;;;;5082152;28;20290;-88
2022/01/24 07:28:24;;;;;;;16.33;9.07;;;2.40;99.90;;;;;;5089436;28;20200;-85
2022/01/24 07:30:51;;;;;;;18.48;10.20;;;2.50;99.90;;;;;;5079647;28;20219;-86
2022/01/24 07:33:20;;;;;;;18.73;9.75;;;2.40;99.90;;;;;;5081084;28;20323;-85
2022/01/24 07:35:47;;;;;;;16.45;10.00;;;2.70;99.90;;;;;;5080544;28;20229;-86
2022/01/24 07:38:13;;;;;;;15.88;9.85;;;2.20;99.90;;;;;;5086773;28;20674;-87
2022/01/24 07:40:43;;;;;;;18.50;9.65;;;2.20;99.90;;;;;;5081717;28;20225;-88
2022/01/24 07:43:12;;;;;;;16.88;10.05;;;2.30;99.90;;;;;;5082857;28;20234;-88
2022/01/24 07:45:40;;;;;;;17.08;9.93;;;2.60;99.90;;;;;;5081550;28;20270;-87
2022/01/24 07:48:08;;;;;;;17.50;10.55;;;2.60;99.90;;;;;;5086710;28;20211;-87
2022/01/24 07:50:40;;;;;;;18.08;9.95;;;2.70;99.90;;;;;;5089215;28;20268;-86
2022/01/24 07:53:08;;;;;;;14.23;10.13;;;2.80;99.90;;;;;;5092067;28;20245;-87
2022/01/24 07:55:37;;;;;;;15.35;10.23;;;2.80;99.90;;;;;;5082986;28;20203;-87
2022/01/24 07:58:04;;;;;;;15.77;8.98;;;3.00;99.90;;;;;;5081155;28;20205;-86
2022/01/24 08:00:31;;;;;;;15.80;10.55;;;2.50;99.90;;;;;;5080728;28;20221;-87
2022/01/24 08:02:58;;;;;;;14.90;9.50;;;3.10;99.90;;;;;;5081189;28;20239;-86
2022/01/24 08:05:26;;;;;;;14.95;10.05;;;3.30;99.90;;;;;;5082693;28;20271;-86
2022/01/24 08:07:55;;;;;;;14.68;10.02;;;3.20;99.90;;;;;;5084449;28;20294;-86
2022/01/24 08:10:22;;;;;;;18.85;10.27;;;3.10;99.90;;;;;;5082866;28;20302;-86
2022/01/24 08:12:49;;;;;;;17.10;11.10;;;3.20;99.90;;;;;;5112427;22;20260;-87
2022/01/24 08:15:16;;;;;;;17.15;11.05;;;3.50;99.90;;;;;;5095697;28;20264;-87
2022/01/24 08:17:44;;;;;;;16.27;11.25;;;3.40;99.90;;;;;;5091958;28;20212;-87
2022/01/24 08:20:15;;;;;;;18.55;11.63;;;3.50;99.90;;;;;;5086586;28;20254;-86
2022/01/24 08:22:44;;;;;;;17.55;11.48;;;3.50;99.90;;;;;;5090221;28;20227;-85
2022/01/24 08:25:13;;;;;;;19.05;12.48;;;3.30;99.90;;;;;;5115497;28;20206;-86
2022/01/24 08:27:40;;;;;;;17.70;10.55;;;3.60;99.90;;;;;;5109912;28;20318;-87
2022/01/24 08:30:13;;;;;;;20.08;10.95;;;3.70;99.90;;;;;;5102768;28;20281;-87
2022/01/24 08:32:40;;;;;;;18.48;11.30;;;3.60;99.90;;;;;;5105837;28;20215;-87
2022/01/24 08:35:08;;;;;;;19.33;12.57;;;3.70;99.90;;;;;;5104368;28;20207;-87
2022/01/24 08:37:36;;;;;;;16.75;11.60;;;3.70;99.90;;;;;;5104215;28;20299;-88
2022/01/24 08:40:05;;;;;;;17.35;11.05;;;3.80;99.90;;;;;;5104096;28;20216;-87
2022/01/24 08:42:37;;;;;;;18.98;11.25;;;3.80;99.90;;;;;;5104280;28;20228;-87
2022/01/24 08:47:50;;;;;;;15.50;10.73;;;3.90;99.90;;;;;;5111513;28;20205;-85
2022/01/24 08:50:25;;;;;;;18.10;11.50;;;4.00;99.90;;;;;;5115070;28;20196;-86
2022/01/24 08:52:52;;;;;;;17.17;11.40;;;4.10;99.90;;;;;;5104287;28;20288;-87
2022/01/24 08:55:22;;;;;;;20.20;11.30;;;4.20;99.90;;;;;;5103891;28;20193;-87
2022/01/24 08:57:50;;;;;;;14.65;10.45;;;4.00;99.90;;;;;;5104320;28;20204;-87
2022/01/24 09:00:17;;;;;;;18.10;12.93;;;4.40;99.90;;;;;;5105253;28;20216;-88
2022/01/24 09:02:44;;;;;;;18.90;12.35;;;4.60;99.90;;;;;;5107476;28;20234;-88
2022/01/24 09:05:11;;;;;;;19.27;12.50;;;4.30;99.90;;;;;;5107695;28;20197;-87
2022/01/24 09:07:39;;;;;;;16.45;11.75;;;4.50;99.90;;;;;;5108647;28;20234;-87
2022/01/24 09:10:07;;;;;;;19.77;13.25;;;4.50;99.90;;;;;;5104331;28;20234;-86
2022/01/24 09:12:34;;;;;;;21.00;12.90;;;4.60;99.90;;;;;;5104080;28;20266;-87
2022/01/24 09:15:03;;;;;;;18.35;11.88;;;4.90;99.90;;;;;;5103983;28;20207;-87
2022/01/24 09:17:30;;;;;;;17.95;11.20;;;4.80;99.90;;;;;;5104060;28;20205;-87
2022/01/24 09:19:57;;;;;;;24.45;14.75;;;5.10;99.90;;;;;;5103536;28;20232;-86
2022/01/24 09:22:24;;;;;;;21.45;13.18;;;5.10;99.90;;;;;;5110359;28;20659;-86
2022/01/24 09:24:51;;;;;;;15.85;11.85;;;5.10;99.90;;;;;;5103778;28;20208;-86
2022/01/24 09:27:18;;;;;;;15.68;12.20;;;5.60;99.90;;;;;;5102705;28;20296;-87
2022/01/24 09:29:45;;;;;;;15.57;11.35;;;4.90;99.90;;;;;;5103460;28;20247;-86
2022/01/24 09:32:13;;;;;;;16.13;12.32;;;5.50;99.90;;;;;;5103603;28;20228;-87
2022/01/24 09:34:40;;;;;;;19.63;12.75;;;5.30;99.90;;;;;;5106409;28;20236;-87
2022/01/24 09:37:07;;;;;;;16.75;10.77;;;5.20;99.90;;;;;;5103240;28;20192;-86
2022/01/24 09:39:37;;;;;;;20.98;13.05;;;5.00;99.90;;;;;;5103322;28;20213;-88
2022/01/24 09:42:06;;;;;;;16.40;10.98;;;5.50;99.90;;;;;;5104437;28;20235;-87
2022/01/24 09:44:35;;;;;;;16.52;10.82;;;5.30;99.90;;;;;;5103690;28;20698;-86
2022/01/24 09:47:02;;;;;;;16.90;11.70;;;5.00;99.90;;;;;;5104289;28;20239;-87
2022/01/24 09:49:31;;;;;;;14.65;10.93;;;5.50;99.90;;;;;;5103866;28;20205;-87
2022/01/24 09:52:01;;;;;;;15.00;10.57;;;5.40;99.90;;;;;;5107050;28;20208;-86
2022/01/24 09:54:28;;;;;;;16.75;10.88;;;5.30;99.90;;;;;;5106747;28;20205;-86
2022/01/24 09:56:55;;;;;;;18.08;10.90;;;5.00;99.90;;;;;;5104085;28;20227;-87
2022/01/24 09:59:22;;;;;;;16.25;11.50;;;5.50;99.90;;;;;;5104585;28;20239;-87
2022/01/24 10:01:49;;;;;;;17.35;11.07;;;5.70;99.90;;;;;;5112669;28;20216;-86
2022/01/24 10:04:18;;;;;;;16.85;10.75;;;5.10;99.90;;;;;;5114953;28;20321;-88
2022/01/24 10:07:07;;;;;;;18.88;13.30;;;5.60;99.90;;;;;;5112361;28;20215;-87
2022/01/24 10:09:40;;;;;;;14.77;9.02;;;5.80;99.90;;;;;;5109880;28;20215;-87
2022/01/24 10:12:17;;;;;;;15.50;9.60;;;5.70;99.90;;;;;;5109501;28;20207;-87
2022/01/24 10:17:30;;;;;;;9.40;7.00;;;5.80;99.90;;;;;;5107830;28;20231;-87
2022/01/24 10:20:15;;;;;;;15.35;10.27;;;6.00;99.90;;;;;;5107957;28;20236;-87
2022/01/24 10:22:59;;;;;;;10.88;8.70;;;5.70;99.90;;;;;;5109507;28;20248;-86
2022/01/24 10:25:27;;;;;;;10.50;6.75;;;5.80;99.90;;;;;;5109271;28;20275;-88
2022/01/24 10:28:01;;;;;;;10.80;7.72;;;5.70;99.90;;;;;;5111126;28;20220;-87
2022/01/24 10:30:29;;;;;;;13.60;8.07;;;5.40;99.90;;;;;;5110525;28;20573;-87
2022/01/24 10:32:56;;;;;;;10.90;7.18;;;5.50;99.90;;;;;;5109183;28;20227;-87
2022/01/24 10:35:34;;;;;;;10.55;8.15;;;5.80;99.90;;;;;;5107581;28;20277;-86
2022/01/24 10:38:28;;;;;;;9.77;7.20;;;6.10;99.90;;;;;;5109007;28;20196;-87
2022/01/24 10:41:10;;;;;;;10.65;7.80;;;6.00;99.90;;;;;;5109745;28;20272;-87
2022/01/24 10:43:39;;;;;;;9.55;6.75;;;6.10;99.90;;;;;;5120938;28;20273;-88
2022/01/24 10:46:10;;;;;;;8.80;6.10;;;6.20;99.90;;;;;;5111313;28;20268;-88
2022/01/24 10:48:40;;;;;;;9.50;6.53;;;6.30;99.90;;;;;;5107313;28;20200;-88
2022/01/24 10:51:11;;;;;;;12.95;6.38;;;6.10;99.90;;;;;;5106313;28;20197;-87
2022/01/24 10:53:42;;;;;;;10.65;6.20;;;6.20;99.90;;;;;;5107392;28;20577;-87
2022/01/24 10:56:28;;;;;;;12.30;6.22;;;6.50;99.90;;;;;;5109304;28;20687;-88
2022/01/24 10:59:01;;;;;;;9.65;6.28;;;6.30;99.90;;;;;;5110734;28;20189;-87
2022/01/24 11:01:29;;;;;;;13.18;5.90;;;6.30;99.90;;;;;;5111618;28;20201;-88
2022/01/24 11:04:02;;;;;;;10.25;7.25;;;5.90;99.90;;;;;;5109450;28;20236;-87
2022/01/24 11:06:30;;;;;;;10.25;6.90;;;6.30;99.90;;;;;;5111174;28;20204;-87
2022/01/24 11:09:15;;;;;;;7.32;5.35;;;6.40;99.90;;;;;;5109226;28;20219;-87
2022/01/24 11:11:43;;;;;;;9.50;7.05;;;6.10;99.90;;;;;;5106811;28;20263;-87
2022/01/24 11:14:15;;;;;;;8.57;5.45;;;6.40;99.90;;;;;;5106611;28;20286;-87
2022/01/24 11:16:42;;;;;;;10.65;5.50;;;6.50;99.90;;;;;;5107308;28;20536;-87
2022/01/24 11:19:16;;;;;;;13.07;5.50;;;6.70;99.90;;;;;;5113221;28;20193;-87
2022/01/24 11:21:45;;;;;;;9.63;5.40;;;6.80;99.90;;;;;;5113714;28;20222;-86
2022/01/24 11:24:18;;;;;;;8.35;5.68;;;6.20;99.90;;;;;;5119281;28;20213;-86
2022/01/24 11:26:47;;;;;;;7.78;5.72;;;6.60;99.90;;;;;;5116170;28;20193;-87
2022/01/24 11:29:14;;;;;;;9.98;6.32;;;6.60;99.90;;;;;;5110180;28;20213;-87
2022/01/24 11:31:47;;;;;;;8.40;6.35;;;6.90;99.90;;;;;;5109524;28;20216;-87
2022/01/24 11:34:21;;;;;;;9.88;6.43;;;6.80;99.90;;;;;;5115751;28;20236;-86
2022/01/24 11:36:48;;;;;;;8.85;6.20;;;6.80;99.90;;;;;;5115308;28;20248;-87
2022/01/24 11:39:26;;;;;;;7.88;5.55;;;6.80;99.90;;;;;;5108618;28;20211;-87
2022/01/24 11:41:53;;;;;;;10.02;5.28;;;6.70;99.90;;;;;;5107096;28;20240;-86
2022/01/24 11:44:22;;;;;;;7.65;4.55;;;6.80;99.90;;;;;;5112946;28;20233;-86
2022/01/24 11:46:52;;;;;;;7.50;4.82;;;7.00;99.90;;;;;;5112018;28;20208;-87
2022/01/24 11:49:27;;;;;;;9.13;5.50;;;7.00;99.90;;;;;;5108753;28;20250;-87
2022/01/24 11:52:04;;;;;;;11.25;5.05;;;6.60;99.90;;;;;;5105789;28;20195;-87
2022/01/24 11:54:45;;;;;;;7.93;5.38;;;6.90;99.90;;;;;;5106327;28;20223;-88
2022/01/24 11:57:24;;;;;;;8.18;4.32;;;6.90;99.90;;;;;;5106779;28;20204;-87
2022/01/24 11:59:55;;;;;;;7.15;4.50;;;7.10;99.90;;;;;;5108750;28;20669;-87
2022/01/24 12:02:25;;;;;;;8.95;5.00;;;7.10;99.90;;;;;;5106329;28;20240;-88
2022/01/24 12:04:58;;;;;;;8.35;5.80;;;7.00;99.90;;;;;;5107927;28;20189;-87
2022/01/24 12:07:27;;;;;;;10.40;5.65;;;7.60;99.90;;;;;;5109931;28;20181;-87
2022/01/24 12:10:16;;;;;;;8.70;6.00;;;7.30;99.90;;;;;;5109564;28;20566;-88
2022/01/24 12:12:48;;;;;;;8.65;6.50;;;7.20;99.90;;;;;;5107639;28;20228;-87
2022/01/24 12:16:05;;;;;;;9.40;6.25;;;7.80;99.90;;;;;;5106424;28;20189;-87
2022/01/24 12:18:50;;;;;;;13.90;6.72;;;7.50;99.90;;;;;;5105588;28;20279;-86
2022/01/24 12:21:24;;;;;;;16.65;5.25;;;7.40;99.90;;;;;;5111011;28;20220;-88
2022/01/24 12:23:52;;;;;;;11.85;7.90;;;6.90;99.90;;;;;;5106476;28;20573;-87
2022/01/24 12:26:30;;;;;;;11.05;7.45;;;6.90;99.90;;;;;;5107108;28;20200;-86
2022/01/24 12:29:02;;;;;;;8.98;6.43;;;7.20;99.90;;;;;;5109189;28;20252;-86
2022/01/24 12:31:38;;;;;;;12.93;6.32;;;7.50;99.90;;;;;;5111868;28;20253;-86
2022/01/24 12:34:20;;;;;;;8.40;6.05;;;7.30;99.90;;;;;;5112566;28;20235;-86
2022/01/24 12:37:02;;;;;;;15.07;6.00;;;7.10;99.90;;;;;;5118018;28;20185;-85
2022/01/24 12:39:36;;;;;;;10.63;6.85;;;7.60;99.90;;;;;;5115713;28;20188;-86
2022/01/24 12:42:12;;;;;;;7.15;3.95;;;7.70;99.90;;;;;;5113486;28;20782;-86
2022/01/24 12:47:27;;;;;;;9.00;5.80;;;7.20;99.90;;;;;;5113043;28;20250;-86
2022/01/24 12:49:56;;;;;;;10.00;5.72;;;7.60;99.90;;;;;;5111164;28;20216;-87
2022/01/24 12:52:25;;;;;;;11.40;5.63;;;7.50;99.90;;;;;;5105463;28;20255;-86
2022/01/24 12:54:54;;;;;;;8.63;5.80;;;7.50;99.90;;;;;;5107627;28;20205;-87
2022/01/24 12:57:29;;;;;;;9.23;5.07;;;7.30;99.90;;;;;;5106988;28;20208;-86
2022/01/24 13:00:08;;;;;;;9.90;6.15;;;7.90;99.90;;;;;;5110587;28;20219;-86
2022/01/24 13:02:38;;;;;;;8.55;5.60;;;7.60;99.90;;;;;;5104338;28;20248;-86
2022/01/24 13:05:08;;;;;;;11.40;7.03;;;7.60;99.90;;;;;;5105167;28;20205;-86
2022/01/24 13:07:36;;;;;;;7.53;5.20;;;7.50;99.90;;;;;;5104466;28;20279;-85
2022/01/24 13:10:09;;;;;;;7.57;5.03;;;7.50;99.90;;;;;;5104006;28;20268;-85
2022/01/24 13:12:38;;;;;;;7.50;5.47;;;7.90;99.90;;;;;;5104470;28;20340;-85
2022/01/24 13:15:19;;;;;;;10.90;5.40;;;7.30;99.90;;;;;;5103112;28;20205;-86
2022/01/24 13:21:02;;;;;;;8.25;5.35;;;8.10;99.90;;;;;;5108152;28;20199;-85
2022/01/24 13:23:30;;;;;;;8.38;5.32;;;8.00;99.90;;;;;;5105264;28;20755;-87
2022/01/24 13:25:57;;;;;;;7.93;4.95;;;7.90;99.90;;;;;;5105637;28;20208;-86
2022/01/24 13:28:25;;;;;;;8.65;5.20;;;8.20;99.90;;;;;;5103531;28;20272;-86
2022/01/24 13:30:59;;;;;;;7.38;4.15;;;8.20;99.90;;;;;;5103832;28;20208;-86
2022/01/24 13:33:27;;;;;;;13.10;5.35;;;8.40;99.90;;;;;;5104356;28;20273;-86
2022/01/24 13:35:56;;;;;;;9.93;5.35;;;8.40;99.90;;;;;;5105797;28;20209;-86
2022/01/24 13:38:25;;;;;;;11.35;6.05;;;8.10;99.90;;;;;;5105171;28;20265;-86
2022/01/24 13:40:55;;;;;;;9.48;5.22;;;7.60;99.90;;;;;;5110794;28;20193;-86
2022/01/24 13:43:36;;;;;;;7.72;4.70;;;7.80;99.90;;;;;;5104546;28;20328;-86
2022/01/24 13:46:05;;;;;;;11.95;4.88;;;8.20;99.90;;;;;;5106184;28;20571;-86
2022/01/24 13:48:40;;;;;;;8.70;4.65;;;8.00;99.90;;;;;;5105027;28;20614;-86
2022/01/24 13:51:08;;;;;;;7.25;4.57;;;7.80;99.90;;;;;;5104177;28;20302;-87
2022/01/24 13:53:38;;;;;;;10.32;5.15;;;8.30;99.90;;;;;;5104368;28;20251;-86
2022/01/24 13:56:20;;;;;;;8.45;5.25;;;8.20;99.90;;;;;;5104675;28;20209;-88
2022/01/24 13:59:08;;;;;;;7.53;4.63;;;8.30;99.90;;;;;;5106030;28;20224;-87
2022/01/24 14:01:36;;;;;;;8.82;4.25;;;8.20;99.90;;;;;;5104177;28;20204;-87
2022/01/24 14:04:05;;;;;;;6.22;3.53;;;8.20;99.90;;;;;;5105131;28;20672;-87
2022/01/24 14:06:34;;;;;;;10.82;5.68;;;8.20;99.90;;;;;;5106457;28;20267;-85
2022/01/24 14:09:09;;;;;;;7.95;4.60;;;8.10;99.90;;;;;;5107769;28;20243;-87
2022/01/24 14:11:49;;;;;;;6.65;4.07;;;8.30;99.90;;;;;;5106929;28;20242;-87
2022/01/24 14:14:29;;;;;;;8.52;4.63;;;8.40;99.90;;;;;;5120230;22;20236;-87
2022/01/24 14:17:06;;;;;;;7.75;4.47;;;8.60;99.90;;;;;;5109535;28;20185;-86
2022/01/24 14:19:34;;;;;;;9.45;4.57;;;8.40;99.90;;;;;;5103291;28;20189;-87
2022/01/24 14:22:03;;;;;;;11.20;4.57;;;8.50;99.90;;;;;;5109816;28;20254;-89
2022/01/24 14:24:49;;;;;;;8.70;4.57;;;8.40;99.90;;;;;;5125135;28;20228;-87
2022/01/24 14:27:41;;;;;;;7.97;4.53;;;8.40;99.90;;;;;;5130842;28;20306;-87
2022/01/24 14:30:13;;;;;;;9.75;4.97;;;8.50;99.90;;;;;;5124369;28;20264;-88